Time;durP1;ratioP1;P1;durP2;ratioP2;P2;SDS_P1;SDS_P2;PMS_P1;PMS_P2;Temp;Humidity;BMP_temperature;BMP_pressure;BME280_temperature;BME280_humidity;BME280_pressure;Samples;Min_cycle;Max_cycle;Signal;HPM_P1;HPM_P2
2023/02/08 00:01:47;;;;;;;25.67;11.77;;;;;;;-4.89;67.75;98153.72;5009573;28;20536;-83
2023/02/08 00:04:14;;;;;;;22.48;11.20;;;;;;;-4.89;68.20;98154.53;5009071;28;20049;-77
2023/02/08 00:06:40;;;;;;;26.17;11.07;;;;;;;-4.90;67.68;98152.06;5008396;28;20056;-79
2023/02/08 00:09:08;;;;;;;22.45;10.90;;;;;;;-4.91;67.87;98153.03;5011344;28;20069;-82
2023/02/08 00:11:35;;;;;;;24.10;11.13;;;;;;;-4.92;67.85;98149.56;5013525;28;20045;-78
2023/02/08 00:14:01;;;;;;;25.63;12.15;;;;;;;-4.92;68.06;98146.91;5013066;28;20057;-80
2023/02/08 00:16:28;;;;;;;26.80;12.57;;;;;;;-4.87;67.83;98143.72;5013435;28;20069;-82
2023/02/08 00:22:35;;;;;;;25.55;11.90;;;;;;;-4.97;68.08;98141.28;4992965;28;20161;-79
2023/02/08 00:25:03;;;;;;;29.27;12.10;;;;;;;-4.96;68.06;98136.81;4978818;28;20046;-78
2023/02/08 00:27:29;;;;;;;29.52;12.45;;;;;;;-4.89;68.42;98138.59;4985060;28;20046;-79
2023/02/08 00:29:56;;;;;;;27.73;12.55;;;;;;;-4.92;68.53;98124.81;4992327;28;20054;-79
2023/02/08 00:32:23;;;;;;;27.70;12.00;;;;;;;-4.91;68.60;98129.97;4992129;28;20514;-77
2023/02/08 00:34:49;;;;;;;25.30;12.00;;;;;;;-4.91;68.21;98124.66;4992938;28;20495;-78
2023/02/08 00:37:16;;;;;;;28.02;12.40;;;;;;;-4.92;67.99;98128.31;4991891;28;20046;-78
2023/02/08 00:39:43;;;;;;;30.63;12.63;;;;;;;-4.89;68.12;98140.44;4974911;28;20054;-79
2023/02/08 00:42:11;;;;;;;28.40;11.90;;;;;;;-4.92;67.94;98128.31;4991958;28;20042;-80
2023/02/08 00:44:37;;;;;;;25.27;12.77;;;;;;;-4.95;68.21;98133.16;4992546;28;20372;-78
2023/02/08 00:47:04;;;;;;;29.02;12.77;;;;;;;-4.97;67.70;98129.84;4991985;28;20050;-79
2023/02/08 00:49:31;;;;;;;29.98;13.98;;;;;;;-4.96;67.75;98131.50;4992199;28;20668;-79
2023/02/08 00:51:57;;;;;;;37.13;13.43;;;;;;;-5.03;68.53;98128.72;4992234;28;20050;-79
2023/02/08 00:54:24;;;;;;;26.17;12.15;;;;;;;-4.99;68.04;98128.19;4990332;28;20419;-81
2023/02/08 00:56:50;;;;;;;25.75;12.25;;;;;;;-4.99;68.25;98141.47;4992581;28;20054;-78
2023/02/08 00:59:18;;;;;;;29.10;11.95;;;;;;;-4.93;68.53;98136.47;4991453;28;20050;-80
2023/02/08 01:01:45;;;;;;;29.00;13.20;;;;;;;-4.97;68.78;98133.31;4992572;28;20046;-79
2023/02/08 01:04:12;;;;;;;30.63;13.35;;;;;;;-4.99;68.36;98132.69;4991698;28;20069;-79
2023/02/08 01:06:38;;;;;;;29.48;13.38;;;;;;;-5.00;68.17;98142.50;4992075;28;20062;-77
2023/02/08 01:09:05;;;;;;;28.42;13.38;;;;;;;-5.03;68.43;98142.81;4991395;28;20050;-77
2023/02/08 01:11:31;;;;;;;31.83;13.93;;;;;;;-5.01;69.03;98138.19;4992030;28;20042;-78
2023/02/08 01:13:59;;;;;;;29.38;13.20;;;;;;;-4.99;69.28;98141.47;4991750;28;20054;-78
2023/02/08 01:16:29;;;;;;;32.25;13.93;;;;;;;-5.01;69.30;98138.19;4991315;28;20133;-78
2023/02/08 01:18:57;;;;;;;28.98;14.05;;;;;;;-5.01;69.01;98134.69;4991513;28;20056;-78
2023/02/08 01:21:27;;;;;;;29.95;12.88;;;;;;;-5.03;68.84;98137.50;4990885;28;20058;-78
2023/02/08 01:23:54;;;;;;;31.58;13.05;;;;;;;-5.06;68.92;98137.88;4991908;28;20053;-79
2023/02/08 01:26:21;;;;;;;29.15;13.40;;;;;;;-5.06;69.05;98137.06;4990239;28;20055;-79
2023/02/08 01:28:48;;;;;;;29.90;14.35;;;;;;;-5.06;69.01;98135.22;4991974;28;20066;-80
2023/02/08 01:31:21;;;;;;;29.27;13.50;;;;;;;-5.05;68.91;98126.25;4990785;28;20130;-77
2023/02/08 01:33:49;;;;;;;22.93;9.87;;;;;;;-5.07;69.17;98125.56;4991768;28;20101;-79
2023/02/08 01:36:15;;;;;;;29.48;12.65;;;;;;;-5.13;69.49;98126.28;4990838;28;20502;-77
2023/02/08 01:38:43;;;;;;;32.60;13.43;;;;;;;-5.05;69.32;98128.91;4991672;28;20046;-77
2023/02/08 01:41:16;;;;;;;33.28;13.43;;;;;;;-5.07;69.18;98130.88;4990718;28;20061;-80
2023/02/08 01:44:08;;;;;;;29.23;13.63;;;;;;;-5.04;69.37;98130.56;4991555;28;20052;-79
2023/02/08 01:46:36;;;;;;;31.27;13.50;;;;;;;-5.05;69.87;98128.91;4983902;28;20054;-78
2023/02/08 01:49:08;;;;;;;30.13;13.68;;;;;;;-5.10;70.20;98136.56;4991130;28;20068;-79
2023/02/08 01:51:39;;;;;;;31.40;13.95;;;;;;;-5.08;69.81;98129.25;4983983;28;20046;-79
2023/02/08 01:54:09;;;;;;;29.60;14.15;;;;;;;-5.07;69.47;98130.06;4988873;28;20502;-78
2023/02/08 01:56:38;;;;;;;30.73;13.85;;;;;;;-5.08;70.14;98121.28;4991151;28;20057;-77
2023/02/08 01:59:10;;;;;;;32.85;13.88;;;;;;;-5.07;70.29;98130.88;4990692;28;20046;-80
2023/02/08 02:01:40;;;;;;;30.13;14.20;;;;;;;-5.07;70.84;98125.56;4990976;28;20049;-80
2023/02/08 02:04:08;;;;;;;29.52;13.85;;;;;;;-5.06;71.01;98127.25;4990442;28;20046;-78
2023/02/08 02:06:40;;;;;;;30.30;13.98;;;;;;;-5.10;70.79;98125.94;4990751;28;20512;-78
2023/02/08 02:09:16;;;;;;;34.42;14.60;;;;;;;-5.12;70.71;98119.13;4990119;28;20053;-78
2023/02/08 02:11:43;;;;;;;31.10;13.50;;;;;;;-5.13;70.75;98115.66;4991110;28;20050;-80
2023/02/08 02:14:10;;;;;;;31.65;14.38;;;;;;;-5.13;70.81;98113.00;4990413;28;20050;-80
2023/02/08 02:16:36;;;;;;;30.88;14.32;;;;;;;-5.15;70.99;98108.88;4990858;28;20050;-78
2023/02/08 02:19:05;;;;;;;29.45;13.88;;;;;;;-5.17;70.96;98109.03;4990297;28;20080;-78
2023/02/08 02:21:45;;;;;;;33.63;13.80;;;;;;;-5.18;70.82;98115.34;4990390;28;20513;-78
2023/02/08 02:24:50;;;;;;;29.45;13.77;;;;;;;-5.20;70.75;98114.72;4988385;28;20042;-80
2023/02/08 02:27:34;;;;;;;32.38;14.65;;;;;;;-5.21;71.16;98113.06;4990034;28;20499;-77
2023/02/08 02:30:41;;;;;;;28.45;13.75;;;;;;;-5.25;71.15;98103.78;4989793;28;20054;-80
2023/02/08 02:33:32;;;;;;;30.92;13.32;;;;;;;-5.28;71.42;98104.13;4986896;28;20046;-80
2023/02/08 02:36:04;;;;;;;30.98;14.27;;;;;;;-5.29;71.13;98105.13;4990578;28;20046;-79
2023/02/08 02:38:41;;;;;;;32.78;14.82;;;;;;;-5.30;71.40;98103.47;4990001;28;20052;-79
2023/02/08 02:43:40;;;;;;;35.75;14.57;;;;;;;-5.34;71.36;98103.00;4989543;28;20050;-78
2023/02/08 02:44:13;;;;;;;35.22;15.07;;;;;;;-5.37;71.55;98100.72;4989688;28;20104;-78
2023/02/08 02:46:43;;;;;;;33.45;14.70;;;;;;;-5.38;71.87;98100.88;4990818;28;20105;-78
2023/02/08 02:49:17;;;;;;;30.83;13.95;;;;;;;-5.41;71.93;98101.22;4989721;28;20402;-78
2023/02/08 02:51:48;;;;;;;33.40;14.93;;;;;;;-5.36;72.61;98106.84;4990208;28;20053;-78
2023/02/08 02:54:19;;;;;;;31.73;14.63;;;;;;;-5.49;72.93;98101.25;4988455;28;20042;-80
2023/02/08 02:56:48;;;;;;;30.25;13.88;;;;;;;-5.45;73.07;98105.22;4990377;28;20438;-82
2023/02/08 02:59:16;;;;;;;37.20;15.63;;;;;;;-5.43;73.33;98108.53;4989537;28;20049;-79
2023/02/08 03:01:45;;;;;;;31.85;14.38;;;;;;;-5.41;73.28;98106.53;4990233;28;20442;-78
2023/02/08 03:04:17;;;;;;;33.15;15.07;;;;;;;-5.42;73.07;98102.25;4989467;28;20056;-78
2023/02/08 03:06:59;;;;;;;31.80;14.57;;;;;;;-5.42;73.10;98102.25;4990200;28;20058;-82
2023/02/08 03:09:36;;;;;;;33.15;14.65;;;;;;;-5.42;72.77;98104.88;4989281;28;20077;-80
2023/02/08 03:12:14;;;;;;;33.22;14.77;;;;;;;-5.47;72.96;98104.59;4989720;28;20050;-83
2023/02/08 03:14:51;;;;;;;34.97;14.75;;;;;;;-5.46;73.17;98109.72;4983780;28;20055;-81
2023/02/08 03:17:34;;;;;;;34.50;15.98;;;;;;;-5.53;73.54;98109.59;4989233;28;20049;-80
2023/02/08 03:20:07;;;;;;;26.37;11.77;;;;;;;-5.49;73.33;98110.03;4989781;28;20053;-77
2023/02/08 03:22:37;;;;;;;;;;;;;;;-5.53;73.50;98109.59;4982962;28;20096;-83
2023/02/08 03:25:12;;;;;;;34.60;14.63;;;;;;;-5.54;73.87;98107.91;4988138;28;19929;-82
2023/02/08 03:27:47;;;;;;;31.92;14.18;;;;;;;-5.52;73.58;98103.28;4983317;28;20070;-83
2023/02/08 03:30:17;;;;;;;30.58;14.50;;;;;;;-5.50;73.85;98105.75;4989196;28;20680;-83
2023/02/08 03:32:47;;;;;;;32.25;14.40;;;;;;;-5.53;73.99;98112.25;4990498;28;20108;-80
2023/02/08 03:35:21;;;;;;;34.97;15.02;;;;;;;-5.53;74.28;98109.59;4989490;28;20554;-79
2023/02/08 03:37:51;;;;;;;38.80;15.50;;;;;;;-5.54;74.10;98107.91;4990308;28;20055;-80
2023/02/08 03:40:23;;;;;;;35.33;15.63;;;;;;;-5.52;73.71;98115.72;4989936;28;20046;-80
2023/02/08 03:42:52;;;;;;;38.70;15.90;;;;;;;-5.58;73.96;98111.09;4993105;28;20046;-79
2023/02/08 03:45:24;;;;;;;31.73;14.68;;;;;;;-5.52;73.84;98108.56;4993231;28;20672;-79
2023/02/08 03:47:54;;;;;;;30.77;14.80;;;;;;;-5.52;74.03;98111.22;4993900;28;20061;-79
2023/02/08 03:50:23;;;;;;;34.03;15.95;;;;;;;-5.50;73.66;98108.41;4993020;28;20061;-83
2023/02/08 03:52:52;;;;;;;32.10;15.38;;;;;;;-5.52;73.89;98111.22;4993845;28;20042;-86
2023/02/08 03:55:21;;;;;;;36.13;14.82;;;;;;;-5.54;74.01;98110.56;4991231;28;20521;-81
2023/02/08 03:57:52;;;;;;;33.45;15.20;;;;;;;-5.55;74.03;98108.91;4993690;28;20054;-79
2023/02/08 04:00:20;;;;;;;35.25;15.13;;;;;;;-5.59;73.87;98104.94;4992556;28;20046;-83
2023/02/08 04:02:52;;;;;;;31.30;14.60;;;;;;;-5.59;73.63;98107.59;4993687;28;20073;-82
2023/02/08 04:05:19;;;;;;;34.50;15.15;;;;;;;-5.55;73.92;98100.94;4993620;28;20073;-81
2023/02/08 04:07:47;;;;;;;36.00;15.77;;;;;;;-5.57;74.06;98105.63;4993929;28;20054;-79
2023/02/08 04:10:14;;;;;;;34.22;15.25;;;;;;;-5.54;73.96;98104.44;4992824;28;20442;-79
2023/02/08 04:12:40;;;;;;;31.45;14.45;;;;;;;-5.55;73.78;98106.25;4993596;28;20054;-82
2023/02/08 04:15:08;;;;;;;36.78;15.15;;;;;;;-5.59;73.91;98104.94;4993007;28;20125;-81
2023/02/08 04:17:35;;;;;;;34.22;14.88;;;;;;;-5.61;74.20;98101.66;4993820;28;20054;-79
2023/02/08 04:20:01;;;;;;;36.97;15.32;;;;;;;-5.61;74.13;98090.22;4993571;28;20051;-80
2023/02/08 04:22:28;;;;;;;37.67;16.35;;;;;;;-5.66;74.12;98088.06;4993427;28;20050;-82
2023/02/08 04:24:55;;;;;;;34.00;15.90;;;;;;;-5.71;74.20;98084.28;4992260;28;20054;-83
2023/02/08 04:27:22;;;;;;;38.65;15.30;;;;;;;-5.76;74.07;98076.81;4992897;28;20061;-81
2023/02/08 04:29:48;;;;;;;32.22;14.90;;;;;;;-5.74;74.02;98077.50;4994290;28;20089;-79
2023/02/08 04:32:15;;;;;;;36.47;14.02;;;;;;;-5.74;74.04;98079.31;4991901;28;20049;-78
2023/02/08 04:34:42;;;;;;;32.92;14.93;;;;;;;-5.78;74.36;98078.84;4992708;28;20042;-76
2023/02/08 04:37:09;;;;;;;37.15;15.55;;;;;;;-5.76;74.11;98082.13;4992053;28;20042;-77
2023/02/08 04:39:36;;;;;;;33.67;14.25;;;;;;;-5.74;74.24;98082.81;4992275;28;20054;-82
2023/02/08 04:42:04;;;;;;;34.63;15.02;;;;;;;-5.74;74.39;98079.31;4991949;28;20043;-78
2023/02/08 04:44:31;;;;;;;32.83;14.88;;;;;;;-5.74;74.24;98077.50;4984651;28;20043;-78
2023/02/08 04:46:58;;;;;;;36.78;15.75;;;;;;;-5.71;73.90;98077.13;4992629;28;20050;-78
2023/02/08 04:49:24;;;;;;;33.17;14.27;;;;;;;-5.69;74.12;98077.81;4991439;28;20054;-78
2023/02/08 04:51:51;;;;;;;34.35;15.30;;;;;;;-5.72;74.07;98072.84;4992387;28;20046;-80
2023/02/08 04:54:18;;;;;;;36.25;15.18;;;;;;;-5.72;73.97;98077.31;4989344;28;20047;-80
2023/02/08 04:56:44;;;;;;;32.85;15.05;;;;;;;-5.76;74.17;98076.81;4991913;28;20058;-78
2023/02/08 04:59:12;;;;;;;31.23;14.13;;;;;;;-5.69;74.21;98082.28;4991470;28;20054;-81
2023/02/08 05:01:39;;;;;;;31.15;15.07;;;;;;;-5.69;74.44;98079.63;4991717;28;20049;-79
2023/02/08 05:04:05;;;;;;;35.45;15.40;;;;;;;-5.69;74.55;98083.13;4991659;28;20057;-78
2023/02/08 05:06:32;;;;;;;36.60;15.52;;;;;;;-5.69;74.71;98083.13;4992105;28;20050;-78
2023/02/08 05:08:58;;;;;;;39.50;15.73;;;;;;;-5.71;74.83;98074.50;4992051;28;20093;-78
2023/02/08 05:11:25;;;;;;;33.10;15.88;;;;;;;-5.77;74.95;98076.00;4991120;28;21731;-79
2023/02/08 05:13:52;;;;;;;35.95;15.55;;;;;;;-5.75;74.53;98073.16;4991930;28;20097;-77
2023/02/08 05:16:20;;;;;;;40.75;16.00;;;;;;;-5.74;74.61;98068.69;4991339;28;20050;-79
2023/02/08 05:18:47;;;;;;;38.03;15.57;;;;;;;-5.72;74.80;98072.84;4991953;28;20046;-79
2023/02/08 05:21:13;;;;;;;32.35;15.05;;;;;;;-5.70;74.89;98070.00;4991042;28;20042;-77
2023/02/08 05:23:40;;;;;;;32.42;14.30;;;;;;;-5.69;75.25;98067.19;4991878;28;20054;-79
2023/02/08 05:26:07;;;;;;;37.45;16.83;;;;;;;-5.71;75.43;98071.00;4989434;28;20054;-81
2023/02/08 05:28:34;;;;;;;33.13;15.73;;;;;;;-5.69;74.95;98072.50;4991683;28;20054;-82
2023/02/08 05:31:08;;;;;;;38.92;16.13;;;;;;;-5.70;75.34;98070.00;4991401;28;20046;-79
2023/02/08 05:33:36;;;;;;;32.38;15.15;;;;;;;-5.70;75.24;98068.16;4984278;28;20049;-76
2023/02/08 05:36:03;;;;;;;35.30;15.73;;;;;;;-5.66;75.36;98066.00;4991139;28;20053;-83
2023/02/08 05:38:30;;;;;;;34.00;15.05;;;;;;;-5.67;75.28;98059.88;4991253;28;20051;-77
2023/02/08 05:40:56;;;;;;;39.45;15.90;;;;;;;-5.68;75.04;98068.03;4991181;28;20405;-78
2023/02/08 05:43:22;;;;;;;31.92;15.73;;;;;;;-5.70;75.06;98064.69;4990929;28;20038;-78
2023/02/08 05:45:49;;;;;;;34.67;14.93;;;;;;;-5.72;75.23;98062.22;4991428;28;20034;-80
2023/02/08 05:48:16;;;;;;;34.13;15.68;;;;;;;-5.77;75.51;98054.78;4990497;28;20694;-82
2023/02/08 05:50:43;;;;;;;32.35;14.68;;;;;;;-5.76;75.45;98066.22;4990668;28;20410;-78
2023/02/08 05:53:10;;;;;;;37.67;16.95;;;;;;;-5.74;75.66;98058.94;4990565;28;20058;-78
2023/02/08 05:55:37;;;;;;;32.33;14.05;;;;;;;-5.80;75.43;98060.41;4989666;28;20121;-81
2023/02/08 05:58:03;;;;;;;35.72;16.08;;;;;;;-5.78;75.55;98058.44;4990578;28;20042;-82
2023/02/08 06:00:30;;;;;;;36.38;15.63;;;;;;;-5.80;75.54;98056.94;4990828;28;20048;-82
2023/02/08 06:02:57;;;;;;;29.27;14.30;;;;;;;-5.77;75.68;98069.88;4990899;28;20044;-79
2023/02/08 06:05:24;;;;;;;37.95;15.35;;;;;;;-5.77;75.53;98065.41;4989379;28;20046;-81
2023/02/08 06:07:52;;;;;;;34.45;15.95;;;;;;;-5.78;75.90;98073.53;4990879;28;20058;-80
2023/02/08 06:10:18;;;;;;;34.33;15.32;;;;;;;-5.84;76.25;98074.22;4990021;28;20039;-82
2023/02/08 06:12:45;;;;;;;37.42;15.57;;;;;;;-5.81;75.90;98073.88;4990608;28;20045;-81
2023/02/08 06:15:12;;;;;;;34.72;15.57;;;;;;;-5.89;76.71;98073.91;4990459;28;20054;-79
2023/02/08 06:17:38;;;;;;;35.45;16.20;;;;;;;-5.85;76.75;98061.94;4990759;28;20046;-80
2023/02/08 06:20:05;;;;;;;35.60;15.50;;;;;;;-5.77;76.82;98064.56;4990114;28;20558;-82
2023/02/08 06:22:34;;;;;;;34.22;15.15;;;;;;;-5.84;76.78;98060.97;4990353;28;20406;-77
2023/02/08 06:25:02;;;;;;;37.78;15.43;;;;;;;-5.77;77.09;98069.88;4988804;28;20053;-79
2023/02/08 06:27:28;;;;;;;35.33;15.50;;;;;;;-5.78;77.03;98068.22;4990166;28;20044;-83
2023/02/08 06:29:55;;;;;;;36.08;15.52;;;;;;;-5.77;77.08;98072.53;4990580;28;20050;-78
2023/02/08 06:32:22;;;;;;;34.17;14.98;;;;;;;-5.80;77.10;98071.03;4990010;28;20050;-80
2023/02/08 06:34:50;;;;;;;39.15;16.88;;;;;;;-5.76;77.12;98082.13;4990727;28;20035;-81
2023/02/08 06:37:16;;;;;;;40.67;17.15;;;;;;;-5.80;77.52;98086.13;4990177;28;20133;-80
2023/02/08 06:39:43;;;;;;;35.38;16.15;;;;;;;-5.75;77.72;98083.78;4991169;28;20042;-81
2023/02/08 06:42:11;;;;;;;41.25;18.35;;;;;;;-5.73;77.67;98092.41;4990308;28;20052;-81
2023/02/08 06:44:38;;;;;;;39.42;17.73;;;;;;;-5.75;77.54;98096.22;4991006;28;20052;-78
2023/02/08 06:47:04;;;;;;;37.63;17.77;;;;;;;-5.79;77.71;98093.13;4990209;28;20046;-80
2023/02/08 06:49:31;;;;;;;41.58;17.73;;;;;;;-5.80;77.89;98096.75;4991236;28;20046;-82
2023/02/08 06:51:58;;;;;;;42.40;17.48;;;;;;;-5.71;77.88;98085.09;4990737;28;20050;-78
2023/02/08 06:54:24;;;;;;;37.17;15.98;;;;;;;-5.67;78.65;98088.25;4989862;28;20406;-80
2023/02/08 06:56:50;;;;;;;34.90;16.35;;;;;;;-5.62;78.31;98089.38;4990240;28;20061;-82
2023/02/08 06:59:18;;;;;;;36.85;16.67;;;;;;;-5.60;78.33;98105.94;4989500;28;20434;-77
2023/02/08 07:01:45;;;;;;;38.55;16.30;;;;;;;-5.52;78.57;98097.97;4989915;28;20135;-75
2023/02/08 07:04:12;;;;;;;38.28;18.35;;;;;;;-5.58;78.40;98098.66;4989678;28;20050;-81
2023/02/08 07:06:38;;;;;;;38.58;16.60;;;;;;;-5.49;78.90;98109.22;4973180;28;20050;-81
2023/02/08 07:09:05;;;;;;;37.78;16.35;;;;;;;-5.48;78.94;98102.91;4990129;28;20042;-77
2023/02/08 07:11:31;;;;;;;39.72;16.77;;;;;;;-5.37;78.55;98105.19;4982051;28;20493;-78
2023/02/08 07:13:58;;;;;;;35.70;16.13;;;;;;;-5.31;78.72;98104.50;4990195;28;20046;-78
2023/02/08 07:16:26;;;;;;;40.83;18.15;;;;;;;-5.23;78.50;98104.44;4990280;28;20406;-77
2023/02/08 07:18:52;;;;;;;40.35;17.20;;;;;;;-5.13;77.73;98105.03;4994412;28;20057;-80
2023/02/08 07:21:20;;;;;;;39.83;17.67;;;;;;;-5.04;77.26;98098.69;4993668;28;20049;-82
2023/02/08 07:23:46;;;;;;;37.03;16.58;;;;;;;-4.96;77.14;98094.28;4994304;28;20464;-83
2023/02/08 07:26:14;;;;;;;37.35;16.80;;;;;;;-4.92;76.37;98095.59;4991700;28;20050;-80
2023/02/08 07:28:41;;;;;;;41.72;16.65;;;;;;;-4.80;76.42;98099.53;4993963;28;20566;-83
2023/02/08 07:31:09;;;;;;;38.97;17.15;;;;;;;-4.81;76.45;98100.50;4993118;28;20042;-84
2023/02/08 07:33:37;;;;;;;37.70;16.50;;;;;;;-4.81;76.45;98103.16;4994161;28;20042;-80
2023/02/08 07:36:06;;;;;;;32.67;16.02;;;;;;;-4.84;76.76;98103.53;4993203;28;20049;-83
2023/02/08 07:38:33;;;;;;;33.50;15.43;;;;;;;-4.86;76.83;98100.19;4986279;28;20049;-83
2023/02/08 07:41:01;;;;;;;37.55;16.50;;;;;;;-4.86;76.78;98094.88;4994725;28;20048;-82
2023/02/08 07:43:27;;;;;;;34.08;15.73;;;;;;;-4.80;77.04;98104.84;4994571;28;20049;-82
2023/02/08 07:45:54;;;;;;;40.35;18.45;;;;;;;-4.73;77.31;98097.78;4996069;28;20042;-78
2023/02/08 07:48:21;;;;;;;37.72;16.85;;;;;;;-4.72;76.35;98096.78;4996342;28;20046;-78
2023/02/08 07:50:49;;;;;;;38.97;17.27;;;;;;;-4.76;76.30;98103.44;4995133;28;20039;-81
2023/02/08 07:53:15;;;;;;;37.88;16.75;;;;;;;-4.73;76.94;98100.44;4993355;28;20533;-80
2023/02/08 07:55:45;;;;;;;41.58;16.77;;;;;;;-4.62;76.89;98104.50;4991736;28;20105;-78
2023/02/08 07:58:13;;;;;;;39.38;16.77;;;;;;;-4.51;77.11;98099.59;4993347;28;20050;-79
2023/02/08 08:00:39;;;;;;;34.33;16.42;;;;;;;-4.43;75.35;98100.53;4993717;28;20415;-77
2023/02/08 08:03:06;;;;;;;32.58;15.52;;;;;;;-4.37;75.49;98102.47;4993123;28;20042;-80
2023/02/08 08:05:32;;;;;;;35.10;15.70;;;;;;;-4.31;75.64;98099.91;4989323;28;20499;-80
2023/02/08 08:08:00;;;;;;;36.63;16.67;;;;;;;-4.26;74.62;98107.34;4996165;28;20046;-78
2023/02/08 08:10:27;;;;;;;38.17;16.10;;;;;;;-4.14;74.35;98105.91;4994455;28;20676;-79
2023/02/08 08:12:53;;;;;;;35.20;15.90;;;;;;;-4.06;73.97;98097.84;4996010;28;20046;-84
2023/02/08 08:15:20;;;;;;;38.50;16.85;;;;;;;-4.12;74.48;98087.09;4994987;28;20045;-77
2023/02/08 08:17:46;;;;;;;35.20;15.63;;;;;;;-4.07;74.03;98095.34;4996387;28;20077;-86
2023/02/08 08:20:13;;;;;;;35.80;16.92;;;;;;;-4.01;74.08;98095.47;4996233;28;20045;-79
2023/02/08 08:22:39;;;;;;;30.38;15.18;;;;;;;-3.85;73.56;98098.94;4997236;28;20057;-79
2023/02/08 08:25:08;;;;;;;37.35;16.23;;;;;;;-3.67;73.54;98088.75;4994930;28;20384;-78
2023/02/08 08:27:34;;;;;;;35.00;15.48;;;;;;;-3.63;73.15;98090.03;4989669;28;20271;-78
2023/02/08 08:30:01;;;;;;;33.95;16.10;;;;;;;-3.48;71.93;98096.16;4993638;28;20130;-79
2023/02/08 08:32:28;;;;;;;31.98;15.93;;;;;;;-3.44;71.99;98102.78;4994425;28;20399;-77
2023/02/08 08:34:54;;;;;;;36.50;16.52;;;;;;;-3.38;72.00;98103.03;4994375;28;20043;-79
2023/02/08 08:37:21;;;;;;;31.00;15.13;;;;;;;-3.13;71.27;98115.03;4994155;28;20533;-77
2023/02/08 08:39:47;;;;;;;32.80;15.68;;;;;;;-2.82;70.21;98100.56;4994678;28;20042;-77
2023/02/08 08:42:15;;;;;;;36.60;15.48;;;;;;;-2.14;67.65;98112.44;4993347;28;20410;-77
2023/02/08 08:44:43;;;;;;;28.90;14.73;;;;;;;-1.17;64.13;98098.19;4994127;28;20053;-78
2023/02/08 08:47:10;;;;;;;31.42;13.88;;;;;;;-0.21;61.08;98097.94;4993270;28;20130;-76
2023/02/08 08:49:36;;;;;;;36.95;14.23;;;;;;;0.42;58.75;98103.63;4993924;28;20057;-78
2023/02/08 08:52:04;;;;;;;27.30;13.90;;;;;;;0.76;57.23;98094.44;4992360;28;20043;-77
2023/02/08 08:54:31;;;;;;;31.58;14.27;;;;;;;0.44;57.09;98104.22;4991960;28;20114;-75
2023/02/08 08:56:58;;;;;;;28.05;13.85;;;;;;;-0.13;57.82;98103.09;4993111;28;20486;-75
2023/02/08 08:59:26;;;;;;;28.20;13.63;;;;;;;-0.41;58.88;98095.28;4992137;28;20073;-78
2023/02/08 09:01:52;;;;;;;25.50;12.75;;;;;;;-0.89;60.06;98104.25;4992721;28;20042;-76
2023/02/08 09:04:21;;;;;;;33.25;14.35;;;;;;;-1.06;61.81;98093.09;4996295;28;20394;-76
2023/02/08 09:06:48;;;;;;;30.45;14.10;;;;;;;-1.44;62.86;98100.75;4996983;28;20047;-79
2023/02/08 09:09:14;;;;;;;28.10;13.98;;;;;;;-1.62;63.10;98108.47;4996734;28;20049;-79
2023/02/08 09:11:41;;;;;;;29.38;14.93;;;;;;;-1.49;63.13;98108.53;4992646;28;20053;-76
2023/02/08 09:14:08;;;;;;;32.90;13.98;;;;;;;-1.49;62.65;98097.84;4996739;28;20043;-77
2023/02/08 09:16:36;;;;;;;30.77;13.98;;;;;;;-1.57;63.35;98106.03;4998019;28;20069;-78
2023/02/08 09:19:04;;;;;;;31.27;14.00;;;;;;;-1.37;62.56;98106.94;4996840;28;20060;-76
2023/02/08 09:21:31;;;;;;;36.85;15.43;;;;;;;-1.27;62.88;98097.75;4996932;28;20053;-76
2023/02/08 09:23:57;;;;;;;31.50;14.60;;;;;;;-1.27;62.49;98100.41;4997040;28;20138;-78
2023/02/08 09:26:25;;;;;;;34.88;15.10;;;;;;;-1.32;62.80;98098.34;4996571;28;20045;-75
2023/02/08 09:28:52;;;;;;;30.85;14.43;;;;;;;-1.32;63.13;98099.16;4993075;28;20505;-77
2023/02/08 09:31:20;;;;;;;27.45;13.45;;;;;;;-1.11;61.85;98106.22;4993778;28;20038;-76
2023/02/08 09:33:48;;;;;;;36.90;16.38;;;;;;;-0.78;61.88;98102.84;4992695;28;20042;-75
2023/02/08 09:36:15;;;;;;;33.80;15.10;;;;;;;-0.72;60.56;98106.56;4991566;28;20045;-76
2023/02/08 09:38:43;;;;;;;37.40;14.82;;;;;;;-0.84;60.49;98096.41;4992918;28;20043;-77
2023/02/08 09:41:24;;;;;;;38.17;14.30;;;;;;;-0.68;59.71;98110.44;4992498;28;20045;-76
2023/02/08 09:44:00;;;;;;;31.63;13.85;;;;;;;-0.75;59.31;98115.78;4993636;28;20047;-84
2023/02/08 09:46:32;;;;;;;40.28;16.15;;;;;;;-0.82;60.18;98115.78;4996824;28;20073;-77
2023/02/08 09:49:03;;;;;;;30.80;14.57;;;;;;;-0.54;59.11;98117.47;4997412;28;20096;-78
2023/02/08 09:51:35;;;;;;;29.45;14.52;;;;;;;-0.39;58.78;98110.09;4997118;28;20490;-77
2023/02/08 09:54:07;;;;;;;44.70;15.80;;;;;;;0.08;58.69;98108.22;4995076;28;20069;-74
2023/02/08 09:56:39;;;;;;;30.33;14.15;;;;;;;0.31;57.45;98109.59;4989783;28;20046;-76
2023/02/08 09:59:06;;;;;;;53.85;15.45;;;;;;;0.54;56.81;98104.63;4998653;28;20210;-74
2023/02/08 10:01:35;;;;;;;38.40;15.43;;;;;;;0.77;56.00;98096.06;4997973;28;20046;-75
2023/02/08 10:04:08;;;;;;;37.50;15.18;;;;;;;1.21;54.84;98097.94;4998700;28;20042;-76
2023/02/08 10:06:36;;;;;;;34.50;14.60;;;;;;;1.46;53.07;98103.34;4990562;28;20046;-75
2023/02/08 10:09:08;;;;;;;35.45;14.57;;;;;;;1.77;52.68;98107.03;4998637;28;20046;-75
2023/02/08 10:11:48;;;;;;;79.38;17.77;;;;;;;1.80;51.62;98102.06;4999773;28;20075;-76
2023/02/08 10:14:30;;;;;;;34.75;13.70;;;;;;;1.61;51.88;98092.28;4997447;28;20057;-75
2023/02/08 10:17:09;;;;;;;32.65;12.70;;;;;;;1.29;52.61;98081.56;4998448;28;20061;-75
2023/02/08 10:19:54;;;;;;;27.85;13.27;;;;;;;1.02;53.44;98096.16;4992505;28;20058;-74
2023/02/08 10:22:29;;;;;;;28.50;13.68;;;;;;;0.84;53.67;98096.06;4991104;28;20049;-75
2023/02/08 10:25:18;;;;;;;27.83;12.98;;;;;;;1.35;53.09;98085.22;4991527;28;20042;-75
2023/02/08 10:27:55;;;;;;;39.65;13.85;;;;;;;1.21;52.63;98095.25;4991535;28;20052;-75
2023/02/08 10:30:33;;;;;;;25.80;13.32;;;;;;;1.06;53.40;98092.03;4990446;28;20088;-75
2023/02/08 10:33:02;;;;;;;34.33;13.75;;;;;;;1.13;53.73;98082.06;4991757;28;20050;-74
2023/02/08 10:35:35;;;;;;;27.95;13.45;;;;;;;1.35;53.50;98079.03;4991101;28;20403;-74
2023/02/08 10:38:17;;;;;;;28.40;14.55;;;;;;;1.41;53.22;98075.50;4991477;28;20074;-75
2023/02/08 10:40:44;;;;;;;29.73;13.57;;;;;;;2.12;51.42;98080.47;4993857;28;20050;-74
2023/02/08 10:43:26;;;;;;;32.05;13.13;;;;;;;2.30;51.51;98072.47;4992656;28;20046;-75
2023/02/08 10:46:01;;;;;;;30.85;13.90;;;;;;;2.74;51.00;98057.06;4992873;28;20042;-74
2023/02/08 10:48:42;;;;;;;27.45;13.70;;;;;;;2.79;49.32;98057.19;4992987;28;20050;-75
2023/02/08 10:51:14;;;;;;;50.38;15.27;;;;;;;2.79;50.10;98065.25;4991761;28;20047;-74
2023/02/08 10:53:40;;;;;;;26.88;13.30;;;;;;;2.88;49.67;98053.16;4992856;28;20042;-75
2023/02/08 10:56:21;;;;;;;33.28;14.02;;;;;;;3.08;48.47;98042.13;4989985;28;20379;-74
2023/02/08 10:58:48;;;;;;;30.45;14.75;;;;;;;2.32;49.60;98048.84;4992274;28;20046;-75
2023/02/08 11:01:15;;;;;;;34.10;14.02;;;;;;;2.35;50.50;98042.22;4991797;28;20035;-75
2023/02/08 11:04:00;;;;;;;30.35;13.73;;;;;;;2.21;51.12;98041.53;4982846;28;20057;-74
2023/02/08 11:06:28;;;;;;;26.88;12.95;;;;;;;2.17;50.42;98036.81;4991889;28;20505;-76
2023/02/08 11:08:57;;;;;;;32.53;14.32;;;;;;;1.81;51.80;98036.53;4993586;28;20131;-73
2023/02/08 11:11:25;;;;;;;34.47;13.52;;;;;;;1.69;52.30;98046.38;4992682;28;20074;-76
2023/02/08 11:13:52;;;;;;;24.92;12.90;;;;;;;1.48;51.77;98042.19;4993621;28;20137;-74
2023/02/08 11:16:23;;;;;;;39.60;14.20;;;;;;;1.10;54.00;98042.28;4992203;28;20050;-76
2023/02/08 11:18:52;;;;;;;29.77;13.40;;;;;;;1.16;54.62;98044.09;4992404;28;20046;-74
2023/02/08 11:21:24;;;;;;;36.38;14.63;;;;;;;0.94;55.47;98032.88;4991370;28;20053;-76
2023/02/08 11:23:54;;;;;;;23.37;11.40;;;;;;;1.04;54.78;98027.00;4993269;28;20397;-77
2023/02/08 11:26:25;;;;;;;28.95;13.45;;;;;;;1.18;55.60;98030.44;4990325;28;20050;-74
2023/02/08 11:29:04;;;;;;;28.75;14.15;;;;;;;1.32;54.60;98037.38;4992154;28;20129;-75
2023/02/08 11:31:34;;;;;;;32.30;13.07;;;;;;;1.32;54.53;98036.56;4991301;28;20038;-74
2023/02/08 11:34:02;;;;;;;33.50;14.85;;;;;;;1.17;54.18;98034.19;4991474;28;20066;-74